Time;durP1;ratioP1;P1;durP2;ratioP2;P2;SDS_P1;SDS_P2;PMS_P1;PMS_P2;Temp;Humidity;BMP_temperature;BMP_pressure;BME280_temperature;BME280_humidity;BME280_pressure;Samples;Min_cycle;Max_cycle;Signal;HPM_P1;HPM_P2
2022/09/09 00:01:50;;;;;;;;;;;18.90;72.40;;;;;;5045944;28;19935;-76
2022/09/09 00:04:22;;;;;;;;;;;18.90;72.50;;;;;;5035711;28;19939;-76
2022/09/09 00:06:56;;;;;;;;;;;18.90;72.50;;;;;;5044777;28;20376;-76
2022/09/09 00:09:26;;;;;;;;;;;18.90;72.50;;;;;;5043052;28;19940;-76
2022/09/09 00:11:54;;;;;;;;;;;18.90;72.50;;;;;;5045551;28;19939;-76
2022/09/09 00:14:24;;;;;;;;;;;18.80;72.70;;;;;;5042934;28;19935;-76
2022/09/09 00:16:52;;;;;;;;;;;18.80;72.70;;;;;;5043998;28;20568;-76
2022/09/09 00:19:23;;;;;;;;;;;18.80;72.80;;;;;;5040442;28;20167;-76
2022/09/09 00:21:52;;;;;;;;;;;18.80;72.80;;;;;;5043651;28;19933;-76
2022/09/09 00:24:25;;;;;;;;;;;18.80;72.80;;;;;;5042479;28;19943;-76
2022/09/09 00:26:54;;;;;;;;;;;18.70;72.90;;;;;;5044161;28;19928;-76
2022/09/09 00:29:24;;;;;;;;;;;18.70;72.90;;;;;;5043680;28;19936;-76
2022/09/09 00:31:55;;;;;;;;;;;18.70;73.00;;;;;;5043199;28;19929;-76
2022/09/09 00:34:23;;;;;;;;;;;18.70;73.00;;;;;;5042308;28;20450;-76
2022/09/09 00:36:51;;;;;;;;;;;18.70;73.10;;;;;;5043848;28;19936;-76
2022/09/09 00:39:21;;;;;;;;;;;18.70;73.10;;;;;;5040145;28;19940;-76
2022/09/09 00:41:55;;;;;;;;;;;18.70;73.20;;;;;;5040761;28;19933;-76
2022/09/09 00:44:30;;;;;;;;;;;18.70;73.20;;;;;;5044009;28;19928;-76
2022/09/09 00:47:05;;;;;;;;;;;18.60;73.00;;;;;;5041998;28;19928;-76
2022/09/09 00:49:37;;;;;;;;;;;18.60;73.20;;;;;;5043654;28;19932;-76
2022/09/09 00:52:10;;;;;;;;;;;18.60;73.30;;;;;;5043989;28;20331;-76
2022/09/09 00:54:41;;;;;;;;;;;18.60;73.30;;;;;;5039634;28;20727;-77
2022/09/09 00:57:13;;;;;;;;;;;18.60;73.30;;;;;;5042057;28;20367;-76
2022/09/09 00:59:45;;;;;;;;;;;18.60;73.10;;;;;;5042599;28;20392;-76
2022/09/09 01:02:26;;;;;;;;;;;18.60;73.20;;;;;;5041173;28;19956;-76
2022/09/09 01:04:54;;;;;;;;;;;18.50;73.20;;;;;;5035959;28;19925;-77
2022/09/09 01:07:21;;;;;;;;;;;18.50;73.20;;;;;;5041979;28;19933;-76
2022/09/09 01:09:56;;;;;;;;;;;18.50;73.30;;;;;;5039707;28;19928;-76
2022/09/09 01:12:27;;;;;;;;;;;18.50;73.20;;;;;;5045190;28;19936;-78
2022/09/09 01:14:57;;;;;;;;;;;18.50;73.10;;;;;;5045867;28;20300;-77
2022/09/09 01:17:25;;;;;;;;;;;18.50;73.00;;;;;;5041504;28;19936;-78
2022/09/09 01:19:59;;;;;;;;;;;18.40;72.90;;;;;;5041437;28;19929;-77
2022/09/09 01:22:31;;;;;;;;;;;18.50;73.00;;;;;;5043552;28;20483;-76
2022/09/09 01:25:13;;;;;;;;;;;18.40;72.80;;;;;;5041828;28;19935;-77
2022/09/09 01:27:41;;;;;;;;;;;18.40;72.70;;;;;;5040634;28;19933;-76
2022/09/09 01:30:09;;;;;;;;;;;18.40;72.80;;;;;;5041458;28;19929;-78
2022/09/09 01:32:39;;;;;;;;;;;18.40;72.70;;;;;;5043312;28;19929;-77
2022/09/09 01:35:08;;;;;;;;;;;18.40;72.80;;;;;;5038064;28;19956;-77
2022/09/09 01:37:34;;;;;;;;;;;18.40;72.70;;;;;;5042085;28;19924;-77
2022/09/09 01:40:01;;;;;;;;;;;18.40;72.80;;;;;;5036810;28;19925;-76
2022/09/09 01:42:28;;;;;;;;;;;18.40;72.80;;;;;;5042452;28;19932;-76
2022/09/09 01:44:57;;;;;;;;;;;18.40;72.70;;;;;;5042932;28;20414;-77
2022/09/09 01:47:24;;;;;;;;;;;18.40;72.80;;;;;;5040422;28;19948;-76
2022/09/09 01:49:51;;;;;;;;;;;18.40;72.70;;;;;;5042223;28;19937;-77
2022/09/09 01:52:18;;;;;;;;;;;18.40;72.80;;;;;;5043762;28;20388;-76
2022/09/09 01:54:44;;;;;;;;;;;18.40;72.40;;;;;;5042370;28;19952;-76
2022/09/09 01:57:16;;;;;;;;;;;18.30;72.50;;;;;;5040582;28;19956;-77
2022/09/09 01:59:49;;;;;;;;;;;18.30;72.70;;;;;;5042143;28;19968;-78
2022/09/09 02:02:18;;;;;;;;;;;18.30;72.80;;;;;;5041840;28;19936;-77
2022/09/09 02:04:46;;;;;;;;;;;18.30;72.80;;;;;;5033359;28;19928;-77
2022/09/09 02:07:20;;;;;;;;;;;18.30;72.80;;;;;;5042243;28;19940;-77
2022/09/09 02:09:51;;;;;;;;;;;18.30;73.00;;;;;;5041073;28;19924;-78
2022/09/09 02:12:19;;;;;;;;;;;18.30;73.40;;;;;;5047326;28;19937;-78
2022/09/09 02:14:50;;;;;;;;;;;18.30;73.80;;;;;;5045378;28;19935;-77
2022/09/09 02:17:21;;;;;;;;;;;18.30;73.90;;;;;;5038245;28;20380;-77
2022/09/09 02:19:50;;;;;;;;;;;18.30;74.00;;;;;;5042909;28;20296;-77
2022/09/09 02:22:18;;;;;;;;;;;18.30;74.20;;;;;;5041070;28;19929;-78
2022/09/09 02:24:46;;;;;;;;;;;18.20;74.30;;;;;;5041803;28;19929;-77
2022/09/09 02:27:14;;;;;;;;;;;18.20;74.40;;;;;;5042918;28;19928;-77
2022/09/09 02:29:42;;;;;;;;;;;18.20;74.60;;;;;;5037286;28;19972;-77
2022/09/09 02:32:11;;;;;;;;;;;18.20;74.80;;;;;;5040980;28;20288;-78
2022/09/09 02:34:41;;;;;;;;;;;18.20;74.70;;;;;;5042326;28;19933;-77
2022/09/09 02:37:09;;;;;;;;;;;18.20;74.80;;;;;;5043285;28;20455;-78
2022/09/09 02:39:35;;;;;;;;;;;18.20;74.70;;;;;;5044562;28;19928;-78
2022/09/09 02:42:03;;;;;;;;;;;18.20;74.80;;;;;;5043914;28;19929;-77
2022/09/09 02:44:30;;;;;;;;;;;18.20;74.80;;;;;;5046408;28;19929;-77
2022/09/09 02:47:03;;;;;;;;;;;18.10;74.90;;;;;;5043008;28;19933;-77
2022/09/09 02:49:36;;;;;;;;;;;18.10;74.80;;;;;;5044372;28;19929;-77
2022/09/09 02:52:06;;;;;;;;;;;18.10;74.80;;;;;;5044875;28;19940;-77
2022/09/09 02:54:33;;;;;;;;;;;18.10;74.80;;;;;;5045136;28;19964;-77
2022/09/09 02:57:02;;;;;;;;;;;18.00;74.70;;;;;;5045345;28;19928;-77
2022/09/09 02:59:30;;;;;;;;;;;18.00;74.80;;;;;;5042419;28;19936;-77
2022/09/09 03:01:56;;;;;;;;;;;18.10;75.70;;;;;;5045674;28;19929;-77
2022/09/09 03:04:24;;;;;;;;;;;18.00;74.80;;;;;;5035971;28;20535;-77
2022/09/09 03:06:50;;;;;;;;;;;18.00;74.80;;;;;;5045577;28;19929;-77
2022/09/09 03:09:18;;;;;;;;;;;18.00;74.90;;;;;;5042759;28;19940;-77
2022/09/09 03:11:45;;;;;;;;;;;18.00;75.00;;;;;;5046173;28;19932;-78
2022/09/09 03:14:11;;;;;;;;;;;18.00;75.10;;;;;;5045788;28;20023;-77
2022/09/09 03:16:38;;;;;;;;;;;18.00;75.00;;;;;;5044967;28;19951;-78
2022/09/09 03:19:06;;;;;;;;;;;18.00;75.00;;;;;;5047864;28;20375;-77
2022/09/09 03:21:32;;;;;;;;;;;18.00;74.90;;;;;;5044564;28;19994;-77
2022/09/09 03:23:59;;;;;;;;;;;18.00;74.90;;;;;;5044695;28;19991;-77
2022/09/09 03:26:27;;;;;;;;;;;17.90;74.80;;;;;;5043810;28;20373;-77
2022/09/09 03:28:54;;;;;;;;;;;17.90;74.70;;;;;;5044464;28;19929;-78
2022/09/09 03:31:21;;;;;;;;;;;17.90;74.70;;;;;;5043607;28;20565;-77
2022/09/09 03:33:47;;;;;;;;;;;17.90;74.60;;;;;;5041313;28;19935;-77
2022/09/09 03:36:14;;;;;;;;;;;17.90;74.70;;;;;;5044924;28;19972;-77
2022/09/09 03:38:41;;;;;;;;;;;17.90;74.40;;;;;;5043203;28;19940;-78
2022/09/09 03:41:07;;;;;;;;;;;17.90;74.40;;;;;;5042707;28;19935;-78
2022/09/09 03:43:37;;;;;;;;;;;17.90;74.30;;;;;;5044379;28;20402;-78
2022/09/09 03:46:04;;;;;;;;;;;17.90;74.30;;;;;;5043185;28;19990;-77
2022/09/09 03:48:30;;;;;;;;;;;17.80;74.20;;;;;;5041907;28;19941;-77
2022/09/09 03:51:00;;;;;;;;;;;17.90;74.40;;;;;;5044018;28;19936;-78
2022/09/09 03:53:26;;;;;;;;;;;17.90;74.40;;;;;;5044679;28;20002;-78
2022/09/09 03:55:54;;;;;;;;;;;17.80;74.30;;;;;;5044260;28;19933;-77
2022/09/09 03:58:21;;;;;;;;;;;17.80;74.20;;;;;;5043615;28;19940;-77
2022/09/09 04:00:54;;;;;;;;;;;17.80;74.20;;;;;;5042862;28;21481;-77
2022/09/09 04:03:22;;;;;;;;;;;17.80;74.10;;;;;;5041591;28;20477;-76
2022/09/09 04:05:49;;;;;;;;;;;17.80;74.10;;;;;;5039930;28;19929;-77
2022/09/09 04:08:16;;;;;;;;;;;17.80;74.20;;;;;;5041798;28;20432;-77
2022/09/09 04:10:42;;;;;;;;;;;17.80;74.10;;;;;;5038877;28;19928;-77
2022/09/09 04:13:09;;;;;;;;;;;17.80;74.10;;;;;;5042896;28;19933;-78
2022/09/09 04:15:36;;;;;;;;;;;17.80;73.80;;;;;;5043656;28;19933;-77
2022/09/09 04:18:04;;;;;;;;;;;17.80;73.70;;;;;;5041847;28;19963;-78
2022/09/09 04:20:31;;;;;;;;;;;17.80;73.80;;;;;;5045003;28;20011;-77
2022/09/09 04:22:58;;;;;;;;;;;17.80;73.80;;;;;;5043129;28;19929;-77
2022/09/09 04:25:24;;;;;;;;;;;17.70;73.80;;;;;;5043019;28;19933;-77
2022/09/09 04:27:54;;;;;;;;;;;17.80;73.90;;;;;;5043944;28;19929;-77
2022/09/09 04:30:21;;;;;;;;;;;17.80;73.80;;;;;;5041261;28;20528;-77
2022/09/09 04:32:47;;;;;;;;;;;17.70;73.60;;;;;;5043178;28;19935;-77
2022/09/09 04:35:15;;;;;;;;;;;17.70;73.70;;;;;;5042659;28;19936;-77
2022/09/09 04:37:42;;;;;;;;;;;17.70;73.80;;;;;;5043430;28;20455;-78
2022/09/09 04:40:09;;;;;;;;;;;17.70;73.60;;;;;;5043770;28;19928;-77
2022/09/09 04:42:36;;;;;;;;;;;17.70;73.70;;;;;;5042245;28;19940;-77
2022/09/09 04:45:02;;;;;;;;;;;17.70;73.70;;;;;;5040758;28;20033;-78
2022/09/09 04:47:29;;;;;;;;;;;17.70;73.70;;;;;;5040558;28;20292;-76
2022/09/09 04:49:56;;;;;;;;;;;17.70;73.70;;;;;;5042517;28;19933;-77
2022/09/09 04:52:24;;;;;;;;;;;17.70;73.60;;;;;;5042390;28;19940;-77
2022/09/09 04:54:50;;;;;;;;;;;17.60;73.40;;;;;;5042624;28;20495;-77
2022/09/09 04:57:17;;;;;;;;;;;17.70;73.20;;;;;;5041872;28;20472;-77
2022/09/09 04:59:45;;;;;;;;;;;17.70;73.20;;;;;;5039855;28;19932;-77
2022/09/09 05:02:12;;;;;;;;;;;17.70;73.20;;;;;;5041765;28;19933;-78
2022/09/09 05:04:39;;;;;;;;;;;17.70;73.30;;;;;;5044680;28;20308;-77
2022/09/09 05:07:06;;;;;;;;;;;17.70;73.30;;;;;;5044162;28;20561;-77
2022/09/09 05:09:34;;;;;;;;;;;17.70;73.30;;;;;;5041175;28;20653;-77
2022/09/09 05:12:00;;;;;;;;;;;17.60;73.10;;;;;;5041637;28;19936;-77
2022/09/09 05:14:27;;;;;;;;;;;17.70;73.20;;;;;;5041618;28;19983;-78
2022/09/09 05:16:53;;;;;;;;;;;17.70;73.20;;;;;;5041336;28;20011;-77
2022/09/09 05:19:20;;;;;;;;;;;17.60;73.20;;;;;;5046874;28;20362;-77
2022/09/09 05:21:47;;;;;;;;;;;17.70;72.50;;;;;;5045958;28;20557;-77
2022/09/09 05:24:13;;;;;;;;;;;17.60;72.60;;;;;;5039957;28;19928;-77
2022/09/09 05:26:41;;;;;;;;;;;17.60;72.70;;;;;;5044351;28;19933;-77
2022/09/09 05:29:08;;;;;;;;;;;17.60;72.80;;;;;;5043731;28;19929;-78
2022/09/09 05:31:34;;;;;;;;;;;17.60;72.60;;;;;;5043353;28;20027;-78
2022/09/09 05:34:01;;;;;;;;;;;17.60;72.50;;;;;;5045651;28;19932;-78
2022/09/09 05:36:27;;;;;;;;;;;17.70;72.70;;;;;;5040717;28;19936;-76
2022/09/09 05:38:54;;;;;;;;;;;17.70;72.70;;;;;;5040316;28;19937;-77
2022/09/09 05:41:22;;;;;;;;;;;17.70;72.60;;;;;;5035664;28;20024;-77
2022/09/09 05:43:50;;;;;;;;;;;17.60;72.50;;;;;;5043531;28;20047;-76
2022/09/09 05:46:18;;;;;;;;;;;17.60;72.40;;;;;;5040066;28;19951;-76
2022/09/09 05:48:47;;;;;;;;;;;17.60;72.60;;;;;;5043684;28;19925;-77
2022/09/09 05:51:15;;;;;;;;;;;17.60;72.40;;;;;;5041993;28;19928;-78
2022/09/09 05:53:42;;;;;;;;;;;17.70;72.40;;;;;;5045162;28;20008;-77
2022/09/09 05:56:10;;;;;;;;;;;17.60;72.20;;;;;;5038976;28;19929;-77
2022/09/09 05:58:38;;;;;;;;;;;17.60;72.20;;;;;;5041287;28;20023;-77
2022/09/09 06:01:07;;;;;;;;;;;17.60;72.20;;;;;;5043389;28;19929;-77
2022/09/09 06:03:34;;;;;;;;;;;17.60;72.10;;;;;;5043447;28;20012;-77
2022/09/09 06:06:01;;;;;;;;;;;17.60;72.30;;;;;;5043093;28;19928;-77
2022/09/09 06:08:28;;;;;;;;;;;17.70;72.40;;;;;;5042869;28;19940;-77
2022/09/09 06:11:01;;;;;;;;;;;17.70;72.30;;;;;;5041737;28;19947;-77
2022/09/09 06:13:28;;;;;;;;;;;17.60;72.30;;;;;;5053186;28;19928;-77
2022/09/09 06:15:55;;;;;;;;;;;17.60;72.20;;;;;;5042281;28;20343;-77
2022/09/09 06:18:23;;;;;;;;;;;17.70;72.30;;;;;;5042285;28;20111;-76
2022/09/09 06:20:56;;;;;;;;;;;17.70;72.40;;;;;;5044979;28;20297;-76
2022/09/09 06:23:23;;;;;;;;;;;17.70;72.30;;;;;;5044653;28;19932;-76
2022/09/09 06:25:50;;;;;;;;;;;17.60;72.30;;;;;;5045257;28;20384;-76
2022/09/09 06:28:17;;;;;;;;;;;17.60;72.10;;;;;;5046869;28;20025;-77
2022/09/09 06:30:44;;;;;;;;;;;17.70;72.10;;;;;;5045732;28;19944;-76
2022/09/09 06:33:11;;;;;;;;;;;17.60;72.10;;;;;;5047374;28;19929;-77
2022/09/09 06:35:38;;;;;;;;;;;17.70;72.20;;;;;;5043140;28;19935;-76
2022/09/09 06:38:05;;;;;;;;;;;17.70;72.20;;;;;;5052598;28;19932;-77
2022/09/09 06:40:32;;;;;;;;;;;17.70;72.20;;;;;;5037971;28;19973;-76
2022/09/09 06:43:00;;;;;;;;;;;17.70;72.30;;;;;;5046641;28;19958;-77
2022/09/09 06:45:26;;;;;;;;;;;17.70;72.20;;;;;;5045680;28;19936;-77
2022/09/09 06:47:55;;;;;;;;;;;17.70;72.30;;;;;;5045764;28;19928;-76
2022/09/09 06:50:22;;;;;;;;;;;17.70;72.40;;;;;;5038903;28;19933;-76
2022/09/09 06:52:49;;;;;;;;;;;17.80;72.50;;;;;;5043598;28;19928;-77
2022/09/09 06:55:17;;;;;;;;;;;17.80;72.50;;;;;;5034354;28;19929;-76
2022/09/09 06:57:44;;;;;;;;;;;17.80;72.60;;;;;;5048872;28;19936;-77
2022/09/09 07:00:11;;;;;;;;;;;17.80;72.50;;;;;;5048753;28;20324;-76
2022/09/09 07:02:39;;;;;;;;;;;17.80;72.50;;;;;;5047939;28;19929;-77
2022/09/09 07:05:07;;;;;;;;;;;17.80;72.50;;;;;;5041770;28;19935;-76
2022/09/09 07:07:34;;;;;;;;;;;17.80;72.60;;;;;;5044661;28;19974;-76
2022/09/09 07:10:03;;;;;;;;;;;17.80;72.50;;;;;;5040012;28;19929;-77
2022/09/09 07:12:29;;;;;;;;;;;17.80;72.50;;;;;;5045526;28;19936;-77
2022/09/09 07:14:56;;;;;;;;;;;17.80;72.60;;;;;;5045199;28;20007;-77
2022/09/09 07:17:23;;;;;;;;;;;17.80;72.50;;;;;;5042060;28;19979;-76
2022/09/09 07:19:49;;;;;;;;;;;17.90;72.70;;;;;;5045817;28;20329;-76
2022/09/09 07:22:16;;;;;;;;;;;17.90;72.60;;;;;;5045624;28;20375;-76
2022/09/09 07:24:44;;;;;;;;;;;17.90;72.50;;;;;;5043431;28;19933;-75
2022/09/09 07:27:12;;;;;;;;;;;17.90;72.40;;;;;;5045476;28;19928;-75
2022/09/09 07:29:39;;;;;;;;;;;17.90;72.50;;;;;;5044455;28;19929;-78
2022/09/09 07:32:05;;;;;;;;;;;18.00;72.70;;;;;;5045577;28;19929;-78
2022/09/09 07:34:32;;;;;;;;;;;18.00;74.00;;;;;;5040303;28;19928;-76
2022/09/09 07:36:59;;;;;;;;;;;18.10;73.60;;;;;;5045164;28;19929;-77
2022/09/09 07:39:25;;;;;;;;;;;18.10;73.40;;;;;;5042394;28;20716;-76
2022/09/09 07:41:54;;;;;;;;;;;18.20;73.30;;;;;;5040257;28;19929;-76
2022/09/09 07:44:22;;;;;;;;;;;18.10;73.20;;;;;;5040418;28;19929;-76
2022/09/09 07:46:49;;;;;;;;;;;18.10;73.00;;;;;;5044215;28;20278;-77
2022/09/09 07:49:17;;;;;;;;;;;18.10;73.00;;;;;;5043841;28;19928;-77
2022/09/09 07:51:45;;;;;;;;;;;18.10;73.10;;;;;;5044865;28;19932;-77
2022/09/09 07:54:12;;;;;;;;;;;18.10;73.10;;;;;;5044640;28;20399;-77
2022/09/09 07:56:39;;;;;;;;;;;18.10;73.20;;;;;;5036368;28;20458;-77
2022/09/09 07:59:06;;;;;;;;;;;18.10;73.40;;;;;;5040183;28;19936;-77
2022/09/09 08:01:38;;;;;;;;;;;18.20;73.70;;;;;;5044836;28;20015;-78
2022/09/09 08:04:06;;;;;;;;;;;18.20;73.70;;;;;;5044048;28;19929;-76
2022/09/09 08:06:35;;;;;;;;;;;18.10;73.80;;;;;;5043943;28;19929;-76
2022/09/09 08:09:02;;;;;;;;;;;18.20;73.80;;;;;;5043362;28;19929;-76
2022/09/09 08:11:29;;;;;;;;;;;18.20;73.80;;;;;;5041212;28;19940;-76
2022/09/09 08:13:56;;;;;;;;;;;18.20;73.80;;;;;;5043886;28;19932;-76
2022/09/09 08:16:23;;;;;;;;;;;18.20;73.80;;;;;;5043429;28;19932;-76
2022/09/09 08:18:52;;;;;;;;;;;18.20;73.80;;;;;;5043934;28;19932;-76
2022/09/09 08:21:19;;;;;;;;;;;18.20;73.70;;;;;;5041984;28;20027;-76
2022/09/09 08:23:47;;;;;;;;;;;18.20;73.80;;;;;;5044162;28;19928;-77
2022/09/09 08:26:14;;;;;;;;;;;18.30;73.90;;;;;;5035822;28;19936;-76
2022/09/09 08:28:41;;;;;;;;;;;18.30;74.00;;;;;;5044078;28;19935;-76
2022/09/09 08:31:09;;;;;;;;;;;18.30;74.10;;;;;;5042505;28;20395;-77
2022/09/09 08:33:37;;;;;;;;;;;18.40;74.30;;;;;;5046453;28;19929;-78
2022/09/09 08:36:05;;;;;;;;;;;18.40;74.20;;;;;;5042791;28;19933;-77
2022/09/09 08:38:31;;;;;;;;;;;18.50;74.20;;;;;;5042143;28;19933;-77
2022/09/09 08:41:04;;;;;;;;;;;18.50;74.00;;;;;;5032244;28;19929;-75
2022/09/09 08:43:31;;;;;;;;;;;18.50;74.40;;;;;;5043030;28;20396;-76
2022/09/09 08:46:03;;;;;;;;;;;18.70;75.00;;;;;;5043419;28;19933;-76
2022/09/09 08:48:38;;;;;;;;;;;18.80;75.10;;;;;;5041431;28;19932;-77
2022/09/09 08:51:08;;;;;;;;;;;18.80;74.90;;;;;;5043188;28;21008;-75
2022/09/09 08:53:38;;;;;;;;;;;18.80;74.60;;;;;;5042754;28;19964;-76
2022/09/09 08:56:09;;;;;;;;;;;18.80;74.60;;;;;;5035342;28;19964;-76
2022/09/09 08:58:40;;;;;;;;;;;18.90;74.80;;;;;;5040614;28;20145;-77
2022/09/09 09:01:18;;;;;;;;;;;18.80;74.50;;;;;;5042694;28;19929;-75
2022/09/09 09:03:50;;;;;;;;;;;18.80;74.50;;;;;;5039150;28;20464;-76
2022/09/09 09:06:25;;;;;;;;;;;18.90;74.60;;;;;;5043052;28;19933;-77
2022/09/09 09:08:56;;;;;;;;;;;18.90;74.50;;;;;;5040746;28;20454;-75
2022/09/09 09:11:23;;;;;;;;;;;19.00;74.30;;;;;;5041389;28;19933;-77
2022/09/09 09:13:53;;;;;;;;;;;19.00;74.20;;;;;;5044250;28;20024;-76
2022/09/09 09:16:23;;;;;;;;;;;19.00;74.00;;;;;;5042895;28;19929;-76
2022/09/09 09:18:50;;;;;;;;;;;19.00;73.80;;;;;;5043011;28;20384;-76
2022/09/09 09:21:21;;;;;;;;;;;19.10;73.50;;;;;;5042588;28;19944;-76
2022/09/09 09:23:53;;;;;;;;;;;19.10;73.30;;;;;;5037261;28;20477;-77
2022/09/09 09:26:19;;;;;;;;;;;19.20;73.00;;;;;;5034611;28;19932;-76
2022/09/09 09:28:46;;;;;;;;;;;19.20;72.80;;;;;;5043372;28;19936;-77
2022/09/09 09:31:14;;;;;;;;;;;19.30;72.40;;;;;;5041378;28;19929;-76
2022/09/09 09:33:46;;;;;;;;;;;19.30;72.20;;;;;;5040094;28;20031;-76
2022/09/09 09:36:15;;;;;;;;;;;19.30;72.10;;;;;;5042811;28;20015;-76
2022/09/09 09:38:52;;;;;;;;;;;19.30;72.00;;;;;;5047956;28;20027;-77
2022/09/09 09:41:29;;;;;;;;;;;19.30;71.90;;;;;;5042691;28;19929;-75
2022/09/09 09:43:56;;;;;;;;;;;19.30;71.70;;;;;;5045771;28;20023;-75
2022/09/09 09:46:25;;;;;;;;;;;19.40;71.70;;;;;;5047687;28;20440;-76
2022/09/09 09:48:57;;;;;;;;;;;19.40;71.60;;;;;;5045983;28;20391;-76
2022/09/09 09:51:24;;;;;;;;;;;19.40;71.30;;;;;;5046905;28;19928;-76
2022/09/09 09:53:52;;;;;;;;;;;19.40;71.20;;;;;;5047701;28;19929;-76
2022/09/09 09:56:26;;;;;;;;;;;19.40;71.10;;;;;;5037298;28;19936;-76
2022/09/09 09:58:54;;;;;;;;;;;19.40;70.90;;;;;;5041968;28;19929;-77
2022/09/09 10:01:23;;;;;;;;;;;19.50;70.70;;;;;;5047549;28;19929;-76
2022/09/09 10:03:51;;;;;;;;;;;19.50;70.40;;;;;;5047041;28;19932;-76
2022/09/09 10:06:18;;;;;;;;;;;19.50;70.10;;;;;;5046058;28;19971;-76
2022/09/09 10:08:46;;;;;;;;;;;19.60;69.90;;;;;;5042002;28;20347;-76
2022/09/09 10:11:28;;;;;;;;;;;19.60;69.40;;;;;;5044192;28;19925;-77
2022/09/09 10:13:58;;;;;;;;;;;19.70;69.10;;;;;;5047607;28;19937;-76
2022/09/09 10:16:31;;;;;;;;;;;19.80;68.30;;;;;;5044859;28;19928;-75
2022/09/09 10:18:59;;;;;;;;;;;19.80;67.70;;;;;;5044767;28;19999;-77
2022/09/09 10:21:33;;;;;;;;;;;19.90;67.30;;;;;;5045391;28;20007;-76
2022/09/09 10:24:14;;;;;;;;;;;20.00;67.00;;;;;;5042147;28;19956;-76
2022/09/09 10:26:46;;;;;;;;;;;20.00;66.70;;;;;;5039523;28;20350;-76
2022/09/09 10:29:37;;;;;;;;;;;20.10;66.30;;;;;;5044961;28;20487;-77
2022/09/09 10:32:08;;;;;;;;;;;20.20;66.00;;;;;;5034792;28;20301;-76
2022/09/09 10:34:44;;;;;;;;;;;20.30;65.70;;;;;;5044462;28;19935;-76
2022/09/09 10:37:18;;;;;;;;;;;20.30;65.70;;;;;;5044028;28;19929;-76
2022/09/09 10:39:45;;;;;;;;;;;20.40;65.40;;;;;;5034943;28;19936;-76
2022/09/09 10:42:15;;;;;;;;;;;20.50;65.50;;;;;;5046225;28;20396;-76
2022/09/09 10:44:47;;;;;;;;;;;20.50;65.50;;;;;;5046308;28;19939;-77
2022/09/09 10:47:32;;;;;;;;;;;20.50;64.90;;;;;;5044106;28;20343;-76
2022/09/09 10:50:06;;;;;;;;;;;20.60;64.40;;;;;;5039670;28;19968;-76
2022/09/09 10:52:36;;;;;;;;;;;20.60;64.30;;;;;;5038843;28;19936;-75
2022/09/09 10:55:07;;;;;;;;;;;20.70;64.20;;;;;;5041244;28;19933;-76
2022/09/09 10:57:38;;;;;;;;;;;20.80;63.90;;;;;;5043246;28;19929;-75
2022/09/09 11:00:06;;;;;;;;;;;20.80;63.70;;;;;;5044689;28;19932;-76
2022/09/09 11:02:33;;;;;;;;;;;20.90;63.70;;;;;;5048564;28;20384;-75
2022/09/09 11:05:02;;;;;;;;;;;20.90;63.40;;;;;;5044991;28;19955;-75
2022/09/09 11:07:33;;;;;;;;;;;20.90;62.90;;;;;;5045302;28;20027;-76
2022/09/09 11:10:02;;;;;;;;;;;20.80;63.10;;;;;;5043241;28;20424;-75
2022/09/09 11:12:29;;;;;;;;;;;20.90;63.00;;;;;;5045880;28;19928;-75
2022/09/09 11:15:00;;;;;;;;;;;20.90;62.60;;;;;;5044726;28;19983;-76
2022/09/09 11:17:29;;;;;;;;;;;20.90;62.40;;;;;;5044496;28;19933;-76
2022/09/09 11:19:56;;;;;;;;;;;20.90;62.10;;;;;;5043941;28;20377;-76
2022/09/09 11:22:29;;;;;;;;;;;21.00;62.30;;;;;;5046661;28;19925;-76
2022/09/09 11:24:57;;;;;;;;;;;21.00;62.50;;;;;;5040153;28;19932;-76
2022/09/09 11:27:26;;;;;;;;;;;21.10;61.90;;;;;;5043967;28;19944;-76
2022/09/09 11:30:04;;;;;;;;;;;21.10;61.60;;;;;;5040222;28;19947;-76
2022/09/09 11:32:49;;;;;;;;;;;21.20;62.00;;;;;;5043509;28;20406;-76
2022/09/09 11:35:24;;;;;;;;;;;21.30;61.20;;;;;;5041164;28;20056;-76
2022/09/09 11:38:09;;;;;;;;;;;21.30;60.90;;;;;;5041823;28;19929;-77
2022/09/09 11:40:36;;;;;;;;;;;21.40;60.60;;;;;;5039687;28;19982;-77
2022/09/09 11:43:04;;;;;;;;;;;21.50;60.60;;;;;;5045090;28;19937;-75
2022/09/09 11:45:33;;;;;;;;;;;21.60;60.40;;;;;;5043385;28;19929;-76
2022/09/09 11:48:01;;;;;;;;;;;21.60;59.90;;;;;;5042817;28;19932;-75
2022/09/09 11:50:30;;;;;;;;;;;21.60;59.90;;;;;;5042264;28;19936;-77
2022/09/09 11:53:05;;;;;;;;;;;21.70;60.40;;;;;;5044943;28;19936;-77
2022/09/09 11:55:33;;;;;;;;;;;21.80;59.70;;;;;;5040631;28;20006;-76
2022/09/09 11:58:00;;;;;;;;;;;21.80;59.80;;;;;;5038087;28;20016;-76
2022/09/09 12:00:36;;;;;;;;;;;21.80;59.60;;;;;;5043694;28;19964;-76
2022/09/09 12:03:03;;;;;;;;;;;21.90;59.70;;;;;;5043228;28;20514;-75
2022/09/09 12:05:38;;;;;;;;;;;22.00;60.20;;;;;;5044576;28;19950;-76
2022/09/09 12:08:05;;;;;;;;;;;22.00;59.90;;;;;;5040467;28;19929;-75
2022/09/09 12:10:33;;;;;;;;;;;22.10;59.30;;;;;;5042833;28;20515;-77
2022/09/09 12:13:09;;;;;;;;;;;22.10;59.00;;;;;;5043799;28;19935;-76
2022/09/09 12:15:47;;;;;;;;;;;22.20;58.70;;;;;;5041044;28;19925;-76
2022/09/09 12:18:15;;;;;;;;;;;22.20;59.30;;;;;;5041521;28;19933;-77
2022/09/09 12:20:51;;;;;;;;;;;22.30;58.70;;;;;;5044782;28;19929;-77
2022/09/09 12:23:27;;;;;;;;;;;22.30;58.20;;;;;;5041463;28;19935;-76
2022/09/09 12:26:00;;;;;;;;;;;22.30;58.20;;;;;;5042501;28;19935;-77
2022/09/09 12:28:34;;;;;;;;;;;22.40;58.00;;;;;;5044652;28;20335;-75
2022/09/09 12:31:05;;;;;;;;;;;22.40;57.70;;;;;;5046043;28;19932;-76
2022/09/09 12:33:35;;;;;;;;;;;22.50;57.80;;;;;;5033407;28;19928;-76
2022/09/09 12:36:03;;;;;;;;;;;22.50;57.90;;;;;;5041758;28;19929;-76
2022/09/09 12:38:32;;;;;;;;;;;22.60;57.20;;;;;;5043839;28;19929;-77
2022/09/09 12:41:00;;;;;;;;;;;22.60;57.10;;;;;;5039814;28;19929;-76
2022/09/09 12:43:28;;;;;;;;;;;22.70;57.30;;;;;;5047311;28;19929;-76
2022/09/09 12:45:57;;;;;;;;;;;22.70;56.70;;;;;;5041862;28;20376;-76
2022/09/09 12:48:30;;;;;;;;;;;22.80;56.90;;;;;;5044626;28;19928;-78
2022/09/09 12:50:57;;;;;;;;;;;22.90;58.30;;;;;;5040025;28;19928;-78
2022/09/09 12:53:26;;;;;;;;;;;22.90;58.30;;;;;;5046281;28;19960;-78
2022/09/09 12:55:53;;;;;;;;;;;22.80;58.00;;;;;;5040254;28;19948;-78
2022/09/09 12:58:20;;;;;;;;;;;22.90;59.00;;;;;;5042563;28;20301;-78
2022/09/09 13:00:51;;;;;;;;;;;22.90;58.90;;;;;;5045199;28;19928;-78
2022/09/09 13:03:19;;;;;;;;;;;22.80;61.40;;;;;;5044091;28;20595;-77
2022/09/09 13:05:48;;;;;;;;;;;22.80;61.10;;;;;;5039581;28;20733;-77
2022/09/09 13:08:15;;;;;;;;;;;22.70;62.90;;;;;;5042445;28;19945;-78
2022/09/09 13:10:44;;;;;;;;;;;22.70;62.70;;;;;;5040880;28;19984;-78
2022/09/09 13:13:14;;;;;;;;;;;22.70;64.00;;;;;;5044054;28;20602;-77
2022/09/09 13:15:49;;;;;;;;;;;22.60;65.20;;;;;;5045726;28;20023;-77
2022/09/09 13:18:16;;;;;;;;;;;22.60;66.30;;;;;;5040874;28;19929;-77
2022/09/09 13:20:47;;;;;;;;;;;22.50;65.90;;;;;;5046653;28;19925;-78
2022/09/09 13:23:15;;;;;;;;;;;22.50;66.00;;;;;;5042585;28;19936;-78
2022/09/09 13:25:43;;;;;;;;;;;22.40;67.00;;;;;;5043627;28;19943;-78
2022/09/09 13:28:20;;;;;;;;;;;22.40;67.40;;;;;;5049710;28;19929;-77
2022/09/09 13:30:58;;;;;;;;;;;22.40;66.90;;;;;;5042410;28;20312;-78
2022/09/09 13:33:30;;;;;;;;;;;22.30;67.30;;;;;;5042888;28;20015;-78
2022/09/09 13:35:59;;;;;;;;;;;22.30;68.50;;;;;;5042393;28;20266;-78
2022/09/09 13:38:26;;;;;;;;;;;22.30;70.10;;;;;;5044409;28;20007;-78
2022/09/09 13:40:54;;;;;;;;;;;22.30;71.30;;;;;;5037906;28;19928;-77
2022/09/09 13:43:22;;;;;;;;;;;22.20;71.80;;;;;;5044478;28;20737;-77
2022/09/09 13:45:54;;;;;;;;;;;22.20;71.40;;;;;;5041909;28;20649;-77
2022/09/09 13:48:20;;;;;;;;;;;22.10;72.20;;;;;;5037436;28;20016;-77
2022/09/09 13:50:54;;;;;;;;;;;22.10;72.10;;;;;;5043816;28;19929;-77
2022/09/09 13:53:22;;;;;;;;;;;22.10;72.20;;;;;;5043744;28;19928;-77
2022/09/09 13:55:48;;;;;;;;;;;22.10;71.10;;;;;;5038223;28;19929;-78
2022/09/09 13:58:18;;;;;;;;;;;22.10;70.70;;;;;;5040469;28;19939;-77
2022/09/09 14:00:45;;;;;;;;;;;22.10;70.40;;;;;;5042148;28;20522;-77
2022/09/09 14:03:12;;;;;;;;;;;22.10;70.40;;;;;;5040751;28;19932;-77
2022/09/09 14:05:39;;;;;;;;;;;22.20;69.90;;;;;;5042427;28;19940;-77
2022/09/09 14:08:06;;;;;;;;;;;22.20;69.40;;;;;;5042445;28;19936;-77
2022/09/09 14:10:35;;;;;;;;;;;22.30;68.20;;;;;;5037788;28;19933;-77
2022/09/09 14:13:02;;;;;;;;;;;22.30;68.10;;;;;;5043048;28;19940;-77
2022/09/09 14:15:28;;;;;;;;;;;22.40;68.60;;;;;;5042290;28;19936;-77
2022/09/09 14:17:55;;;;;;;;;;;22.50;68.80;;;;;;5043899;28;19935;-77
2022/09/09 14:20:22;;;;;;;;;;;22.50;69.50;;;;;;5046621;28;19932;-78
2022/09/09 14:22:48;;;;;;;;;;;22.50;69.60;;;;;;5041254;28;19929;-77
2022/09/09 14:25:15;;;;;;;;;;;22.50;69.90;;;;;;5034613;28;19929;-77
2022/09/09 14:27:43;;;;;;;;;;;22.40;70.20;;;;;;5043351;28;20304;-77